Time;durP1;ratioP1;P1;durP2;ratioP2;P2;SDS_P1;SDS_P2;PMS_P1;PMS_P2;Temp;Humidity;BMP_temperature;BMP_pressure;BME280_temperature;BME280_humidity;BME280_pressure;Samples;Min_cycle;Max_cycle;Signal;HPM_P1;HPM_P2
2021/12/11 00:01:10;;;;;;;392.08;276.08;;;;;;;24.24;36.02;101411.50;5063203;28;20090;-42
2021/12/11 00:03:46;;;;;;;393.92;272.95;;;;;;;24.22;36.19;101414.09;5061445;28;20110;-42
2021/12/11 00:06:18;;;;;;;383.25;270.27;;;;;;;24.24;36.12;101425.47;5063457;28;20097;-42
2021/12/11 00:08:50;;;;;;;393.95;280.90;;;;;;;24.22;36.53;101431.56;5063323;28;20070;-42
2021/12/11 00:11:27;;;;;;;389.73;274.35;;;;;;;24.11;36.38;101416.50;5063001;28;20103;-42
2021/12/11 00:13:58;;;;;;;387.63;272.67;;;;;;;24.14;36.41;101430.53;5062015;28;20054;-42
2021/12/11 00:16:28;;;;;;;379.58;273.13;;;;;;;24.08;36.53;101432.16;5062744;28;20108;-42
2021/12/11 00:19:02;;;;;;;388.83;271.17;;;;;;;24.11;36.56;101440.09;5063074;28;20032;-42
2021/12/11 00:21:32;;;;;;;390.83;270.20;;;;;;;24.13;36.37;101440.13;5062861;28;20063;-42
2021/12/11 00:24:24;;;;;;;382.52;270.73;;;;;;;24.09;36.42;101444.44;5063228;28;20033;-42
2021/12/11 00:27:02;;;;;;;395.10;276.33;;;;;;;24.12;36.56;101441.88;5063079;28;20340;-42
2021/12/11 00:29:33;;;;;;;382.20;271.38;;;;;;;24.11;36.43;101444.44;5063157;28;20046;-43
2021/12/11 00:32:23;;;;;;;384.77;276.40;;;;;;;24.16;36.62;101444.56;5062704;28;20028;-42
2021/12/11 00:34:54;;;;;;;386.95;268.17;;;;;;;24.16;36.40;101452.41;5058260;28;20401;-42
2021/12/11 00:37:25;;;;;;;396.58;275.55;;;;;;;24.16;36.33;101450.66;5062624;28;20031;-42
2021/12/11 00:39:58;;;;;;;392.50;277.40;;;;;;;24.17;36.65;101460.31;5063048;28;20032;-42
2021/12/11 00:42:33;;;;;;;393.52;278.48;;;;;;;24.22;36.24;101468.25;5062674;28;20039;-42
2021/12/11 00:45:03;;;;;;;;;;;;;;;24.28;36.03;101471.00;5063637;28;20107;-42
2021/12/11 00:47:33;;;;;;;395.27;279.23;;;;;;;24.16;36.60;101466.41;5063130;28;19942;-42
2021/12/11 00:50:09;;;;;;;388.65;276.65;;;;;;;24.12;36.83;101472.41;5063050;28;20409;-42
2021/12/11 00:52:44;;;;;;;392.00;275.90;;;;;;;24.14;36.41;101468.09;5062373;28;20032;-42
2021/12/11 00:55:33;;;;;;;396.30;278.40;;;;;;;24.16;36.61;101473.41;5064071;28;20028;-41
2021/12/11 00:58:08;;;;;;;396.83;277.35;;;;;;;24.07;36.85;101467.09;5067044;28;20043;-41
2021/12/11 01:00:38;;;;;;;;;;;;;;;24.19;36.49;101473.44;5067167;28;20051;-41
2021/12/11 01:03:07;;;;;;;397.75;281.40;;;;;;;24.18;36.67;101472.56;5066402;28;20356;-42
2021/12/11 01:05:39;;;;;;;391.55;273.33;;;;;;;24.16;36.30;101470.78;5065490;28;20119;-42
2021/12/11 01:08:31;;;;;;;386.10;275.00;;;;;;;24.16;36.49;101476.00;5066257;28;20101;-42
2021/12/11 01:11:22;;;;;;;381.85;275.25;;;;;;;24.21;36.46;101479.59;5061302;28;20401;-42
2021/12/11 01:14:32;;;;;;;381.63;272.30;;;;;;;24.21;36.25;101477.88;5059103;28;20044;-42
2021/12/11 01:17:05;;;;;;;385.75;276.02;;;;;;;24.33;36.14;101484.19;5066179;28;20112;-42
2021/12/11 01:19:37;;;;;;;384.63;274.10;;;;;;;24.20;36.33;101483.06;5066162;28;20039;-42
2021/12/11 01:22:20;;;;;;;385.13;274.77;;;;;;;24.17;36.72;101481.28;5065979;28;20040;-41
2021/12/11 01:24:52;;;;;;;394.63;275.90;;;;;;;24.20;36.44;101483.06;5064353;28;20036;-43
2021/12/11 01:27:24;;;;;;;389.75;274.45;;;;;;;24.09;36.85;101486.34;5064743;28;20032;-42
2021/12/11 01:29:56;;;;;;;388.75;275.55;;;;;;;24.29;36.54;101480.66;5066158;28;20453;-42
2021/12/11 01:32:27;;;;;;;390.13;274.55;;;;;;;24.28;36.26;101484.13;5065411;28;20482;-43
2021/12/11 01:34:55;;;;;;;389.25;271.95;;;;;;;24.14;36.63;101490.81;5064258;28;20283;-42
2021/12/11 01:37:24;;;;;;;389.15;278.17;;;;;;;24.18;36.15;101492.63;5065656;28;20445;-42
2021/12/11 01:39:53;;;;;;;388.13;269.42;;;;;;;24.15;36.41;101506.56;5064250;28;20491;-42
2021/12/11 01:42:31;;;;;;;374.10;272.05;;;;;;;24.09;36.54;101498.56;5064513;28;20032;-41
2021/12/11 01:45:01;;;;;;;396.50;274.23;;;;;;;24.11;36.52;101492.53;5065441;28;20123;-41
2021/12/11 01:47:33;;;;;;;388.23;275.88;;;;;;;24.09;36.70;101499.47;5063816;28;20032;-42
2021/12/11 01:50:25;;;;;;;387.42;273.23;;;;;;;24.24;36.18;101498.88;5065309;28;20086;-42
2021/12/11 01:52:57;;;;;;;386.38;277.35;;;;;;;24.22;36.59;101489.22;5060172;28;20665;-42
2021/12/11 01:55:48;;;;;;;378.77;272.17;;;;;;;24.15;36.58;101495.22;5064973;28;20047;-42
2021/12/11 01:58:25;;;;;;;379.73;269.48;;;;;;;24.04;36.38;101498.47;5065388;28;20028;-42
2021/12/11 02:00:59;;;;;;;377.27;271.00;;;;;;;24.07;36.90;101501.16;5065420;28;20035;-42
2021/12/11 02:03:32;;;;;;;380.08;273.35;;;;;;;24.14;36.73;101507.41;5065218;28;20056;-41
2021/12/11 02:06:01;;;;;;;392.73;278.67;;;;;;;24.08;36.61;101513.41;5065687;28;20032;-42
2021/12/11 02:08:34;;;;;;;390.52;274.55;;;;;;;24.11;36.51;101510.88;5063513;28;20032;-42
2021/12/11 02:11:09;;;;;;;373.48;271.92;;;;;;;24.14;36.29;101517.03;5065096;28;20024;-41
2021/12/11 02:13:44;;;;;;;394.20;277.92;;;;;;;24.11;36.70;101523.06;5065281;28;20104;-41
2021/12/11 02:16:32;;;;;;;392.38;272.95;;;;;;;24.17;36.29;101527.56;5063500;28;20032;-42
2021/12/11 02:19:07;;;;;;;383.52;274.75;;;;;;;24.07;36.74;101522.13;5060887;28;20382;-42
2021/12/11 02:21:57;;;;;;;390.42;278.52;;;;;;;24.18;36.31;101530.22;5065265;28;20028;-42
2021/12/11 02:24:37;;;;;;;397.05;276.02;;;;;;;24.15;36.53;101526.66;5061865;28;20055;-42
2021/12/11 02:27:26;;;;;;;387.95;274.83;;;;;;;24.28;36.52;101519.06;5064698;28;20090;-42
2021/12/11 02:30:22;;;;;;;390.10;280.45;;;;;;;24.30;36.35;101534.84;5047689;28;20036;-42
2021/12/11 02:33:02;;;;;;;390.70;279.00;;;;;;;24.11;36.42;101528.31;5065575;28;20047;-42
2021/12/11 02:35:40;;;;;;;384.98;274.75;;;;;;;24.13;36.27;101510.88;5065260;28;20028;-42
2021/12/11 02:38:16;;;;;;;401.95;283.17;;;;;;;24.17;36.52;101532.78;5064686;28;20028;-43
2021/12/11 02:40:51;;;;;;;387.52;276.08;;;;;;;24.06;36.34;101540.47;5063318;28;20032;-42
2021/12/11 02:43:39;;;;;;;388.92;275.75;;;;;;;24.02;36.62;101541.25;5064360;28;20599;-42
2021/12/11 02:46:22;;;;;;;395.52;278.90;;;;;;;24.06;36.58;101546.56;5064815;28;20032;-41
2021/12/11 02:48:57;;;;;;;395.67;278.50;;;;;;;24.00;37.03;101546.44;5063012;28;20330;-42
2021/12/11 02:51:36;;;;;;;389.17;280.05;;;;;;;24.11;36.83;101547.56;5064719;28;20028;-42
2021/12/11 02:54:22;;;;;;;394.00;283.15;;;;;;;24.12;36.19;101549.34;5064622;28;20032;-42
2021/12/11 02:56:57;;;;;;;388.63;276.45;;;;;;;24.18;36.66;101539.81;5064250;28;20028;-41
2021/12/11 02:59:29;;;;;;;396.00;281.05;;;;;;;24.15;36.72;101545.03;5064600;28;20614;-41
2021/12/11 03:02:05;;;;;;;393.88;282.40;;;;;;;24.09;36.69;101543.13;5063928;28;20451;-41
2021/12/11 03:04:38;;;;;;;385.33;280.77;;;;;;;24.12;36.52;101540.56;5064276;28;20040;-42
2021/12/11 03:07:10;;;;;;;386.88;276.77;;;;;;;24.07;36.82;101537.84;5064006;28;20508;-42
2021/12/11 03:09:42;;;;;;;390.15;271.98;;;;;;;23.98;36.72;101535.06;5064135;28;20032;-42
2021/12/11 03:12:13;;;;;;;380.35;274.27;;;;;;;23.94;36.91;101534.03;5078975;28;20543;-42
2021/12/11 03:14:43;;;;;;;384.45;277.77;;;;;;;23.93;36.79;101528.78;5062519;28;20037;-42
2021/12/11 03:17:12;;;;;;;390.80;281.48;;;;;;;23.97;36.94;101530.66;5063976;28;20032;-42
2021/12/11 03:19:42;;;;;;;381.70;273.23;;;;;;;24.00;36.66;101528.09;5062889;28;20040;-42
2021/12/11 03:22:15;;;;;;;392.15;275.85;;;;;;;23.92;36.50;101534.88;5063880;28;20501;-42
2021/12/11 03:24:44;;;;;;;393.75;275.35;;;;;;;23.94;36.54;101530.56;5064083;28;20386;-42
2021/12/11 03:27:13;;;;;;;388.27;273.70;;;;;;;24.03;36.40;101532.53;5064402;28;20118;-43
2021/12/11 03:29:42;;;;;;;393.00;277.67;;;;;;;24.04;36.64;101543.03;5064005;28;20095;-42
2021/12/11 03:32:12;;;;;;;393.65;277.25;;;;;;;24.09;36.63;101537.88;5063299;28;20032;-42
2021/12/11 03:34:42;;;;;;;385.58;270.98;;;;;;;23.95;36.43;101546.28;5063356;28;20510;-43
2021/12/11 03:37:12;;;;;;;385.42;276.70;;;;;;;24.01;36.73;101552.56;5062908;28;20033;-43
2021/12/11 03:39:44;;;;;;;390.35;280.48;;;;;;;24.03;36.83;101551.75;5063319;28;20024;-42
2021/12/11 03:42:17;;;;;;;387.73;275.13;;;;;;;24.05;36.67;101547.41;5063521;28;20029;-43
2021/12/11 03:44:47;;;;;;;388.08;278.20;;;;;;;23.96;36.79;101542.88;5063221;28;20404;-42
2021/12/11 03:47:20;;;;;;;396.88;281.23;;;;;;;23.92;36.75;101547.97;5063578;28;20086;-42
2021/12/11 03:49:49;;;;;;;401.52;284.05;;;;;;;23.96;36.84;101545.47;5063639;28;20067;-42
2021/12/11 03:52:19;;;;;;;397.25;279.17;;;;;;;23.90;36.53;101524.38;5063252;28;20401;-42
2021/12/11 03:54:50;;;;;;;401.83;282.02;;;;;;;24.06;36.29;101551.81;5063274;28;20643;-43
2021/12/11 03:57:23;;;;;;;398.20;282.40;;;;;;;24.00;36.50;101556.91;5062663;28;20448;-42
2021/12/11 03:59:53;;;;;;;394.80;284.85;;;;;;;24.01;36.52;101560.44;5063341;28;20035;-43
2021/12/11 04:02:25;;;;;;;402.05;284.60;;;;;;;23.94;36.75;101557.63;5063030;28;20067;-42
2021/12/11 04:04:58;;;;;;;394.52;283.42;;;;;;;24.03;36.79;101558.72;5063535;28;20028;-42
2021/12/11 04:07:33;;;;;;;385.63;275.70;;;;;;;23.94;36.76;101569.84;5063147;28;20248;-42
2021/12/11 04:10:01;;;;;;;394.90;276.10;;;;;;;23.93;36.85;101568.97;5063498;28;20072;-42
2021/12/11 04:12:30;;;;;;;393.65;278.15;;;;;;;23.79;36.74;101547.69;5063650;28;20035;-42
2021/12/11 04:14:59;;;;;;;403.85;285.85;;;;;;;23.88;37.35;101575.84;5063136;28;20032;-42
2021/12/11 04:17:29;;;;;;;401.13;283.05;;;;;;;23.95;36.79;101579.50;5062045;28;20031;-42
2021/12/11 04:20:00;;;;;;;396.42;283.98;;;;;;;23.93;36.61;101578.56;5062442;28;20059;-43
2021/12/11 04:22:29;;;;;;;385.80;279.45;;;;;;;23.95;36.89;101576.88;5061996;28;20102;-42
2021/12/11 04:24:58;;;;;;;396.05;282.23;;;;;;;23.96;36.80;101582.16;5062971;28;20039;-42
2021/12/11 04:27:27;;;;;;;389.98;285.20;;;;;;;23.93;37.05;101581.19;5062558;28;20127;-42
2021/12/11 04:29:56;;;;;;;390.38;277.60;;;;;;;23.92;36.69;101587.28;5063747;28;20469;-42
2021/12/11 04:32:26;;;;;;;396.63;280.48;;;;;;;23.93;37.09;101586.44;5067314;28;20089;-42
2021/12/11 04:34:55;;;;;;;397.42;279.40;;;;;;;23.94;36.68;101588.19;5066925;28;20037;-42
2021/12/11 04:37:28;;;;;;;391.52;278.23;;;;;;;24.01;36.78;101590.13;5067033;28;20016;-42
2021/12/11 04:40:03;;;;;;;401.10;287.70;;;;;;;23.94;36.70;101598.69;5066700;28;20040;-42
2021/12/11 04:45:21;;;;;;;396.67;282.17;;;;;;;24.03;36.84;101593.69;5066914;28;20432;-42
2021/12/11 04:47:56;;;;;;;392.20;279.65;;;;;;;23.99;36.57;101594.47;5049961;28;20044;-42
2021/12/11 04:50:37;;;;;;;404.33;280.23;;;;;;;24.01;36.93;101587.50;5066802;28;20402;-42
2021/12/11 04:53:20;;;;;;;391.60;279.27;;;;;;;23.96;36.74;101591.75;5067089;28;20028;-42
2021/12/11 04:56:11;;;;;;;401.75;279.17;;;;;;;23.94;36.67;101589.06;5066901;28;20036;-42
2021/12/11 05:11:38;;;;;;;393.98;283.17;;;;;;;23.97;36.74;101604.91;5066556;28;20531;-42
2021/12/11 05:14:07;;;;;;;400.80;284.15;;;;;;;24.03;36.40;101603.28;5066121;28;20025;-42
2021/12/11 05:16:36;;;;;;;407.23;287.17;;;;;;;23.98;36.77;101611.06;5066018;28;20028;-41
2021/12/11 05:19:04;;;;;;;398.95;287.20;;;;;;;23.92;36.69;101605.63;5039171;28;20450;-42
2021/12/11 05:21:33;;;;;;;393.80;285.30;;;;;;;23.94;36.85;101609.16;5066104;28;20123;-42
2021/12/11 05:24:03;;;;;;;396.95;289.98;;;;;;;23.91;36.71;101612.59;5065972;28;20029;-41
2021/12/11 05:26:32;;;;;;;392.08;281.58;;;;;;;23.94;37.18;101606.53;5065949;28;20111;-42
2021/12/11 05:29:00;;;;;;;386.00;278.80;;;;;;;23.92;37.09;101613.47;5065618;28;20024;-41
2021/12/11 05:31:29;;;;;;;388.50;281.92;;;;;;;23.96;36.95;101608.38;5064546;28;20035;-42
2021/12/11 05:33:58;;;;;;;382.75;277.45;;;;;;;23.98;36.51;101613.69;5066056;28;20040;-41
2021/12/11 05:36:31;;;;;;;382.42;274.42;;;;;;;23.93;36.63;101607.41;5066146;28;20541;-41
2021/12/11 05:39:01;;;;;;;372.63;269.75;;;;;;;23.91;36.83;101611.72;5065343;28;20032;-42
2021/12/11 05:41:29;;;;;;;383.20;267.00;;;;;;;23.98;36.69;101611.06;5064835;28;20384;-42
2021/12/11 05:43:58;;;;;;;372.95;263.58;;;;;;;23.98;36.56;101611.06;5065552;28;20517;-42
2021/12/11 05:46:27;;;;;;;367.70;263.30;;;;;;;23.96;36.76;101610.09;5065576;28;20035;-42
2021/12/11 05:48:56;;;;;;;364.40;258.25;;;;;;;23.87;36.98;101612.47;5066106;28;20470;-41
2021/12/11 05:51:25;;;;;;;362.02;255.77;;;;;;;23.82;36.88;101613.28;5065324;28;20742;-42
2021/12/11 05:53:59;;;;;;;351.80;254.40;;;;;;;23.87;36.73;101620.34;5065835;28;20032;-42
2021/12/11 05:56:34;;;;;;;359.33;252.73;;;;;;;23.89;36.82;101618.66;5065640;28;20120;-42
2021/12/11 05:59:05;;;;;;;344.67;250.70;;;;;;;23.95;36.70;101629.28;5065630;28;20265;-42
2021/12/11 06:01:38;;;;;;;358.55;248.40;;;;;;;23.91;36.75;101630.06;5065765;28;20032;-41
2021/12/11 06:04:13;;;;;;;346.50;247.40;;;;;;;23.92;36.39;101627.47;5065703;28;20036;-42
2021/12/11 06:06:42;;;;;;;336.77;245.02;;;;;;;24.04;36.35;101632.13;5065377;28;20024;-43
2021/12/11 06:09:13;;;;;;;339.08;244.23;;;;;;;23.93;36.34;101638.84;5065176;28;20047;-42
2021/12/11 06:11:45;;;;;;;327.48;234.40;;;;;;;23.83;36.71;101633.34;5065112;28;20127;-42
2021/12/11 06:14:16;;;;;;;323.42;234.68;;;;;;;23.95;36.59;101638.00;5065052;28;20032;-43
2021/12/11 06:16:47;;;;;;;339.13;241.35;;;;;;;23.94;36.49;101640.63;5064868;28;20029;-43
2021/12/11 06:19:19;;;;;;;335.40;238.25;;;;;;;23.85;36.76;101643.91;5065641;28;20025;-42
2021/12/11 06:21:48;;;;;;;331.70;234.73;;;;;;;23.92;36.66;101648.41;5065028;28;20036;-43
2021/12/11 06:24:19;;;;;;;328.02;233.68;;;;;;;23.97;36.43;101645.97;5064959;28;20055;-42
2021/12/11 06:26:47;;;;;;;321.60;229.57;;;;;;;23.97;36.58;101638.97;5064328;28;20029;-42
2021/12/11 06:29:16;;;;;;;329.27;229.98;;;;;;;24.02;36.05;101639.06;5065134;28;20032;-43
2021/12/11 06:31:45;;;;;;;324.17;225.55;;;;;;;24.00;36.15;101646.00;5063812;28;20033;-42
2021/12/11 06:34:13;;;;;;;315.13;220.57;;;;;;;23.96;35.89;101639.81;5065427;28;20032;-42
2021/12/11 06:36:43;;;;;;;290.55;210.18;;;;;;;23.94;36.00;101641.47;5064713;28;20036;-43
2021/12/11 06:39:15;;;;;;;296.17;203.65;;;;;;;23.92;36.03;101647.56;5064687;28;20028;-42
2021/12/11 06:41:46;;;;;;;280.92;204.50;;;;;;;23.95;36.21;101643.25;5063250;28;20035;-42
2021/12/11 06:44:15;;;;;;;277.15;197.13;;;;;;;23.93;35.74;101644.09;5063194;28;20451;-43
2021/12/11 06:46:43;;;;;;;265.35;189.75;;;;;;;23.93;36.06;101644.09;5063534;28;20074;-45
2021/12/11 06:49:12;;;;;;;262.67;186.13;;;;;;;23.94;35.57;101645.84;5061776;28;20032;-44
2021/12/11 06:51:41;;;;;;;252.93;180.15;;;;;;;23.94;35.84;101646.72;5063528;28;20036;-43
2021/12/11 06:54:11;;;;;;;243.18;177.77;;;;;;;23.89;35.74;101645.75;5064064;28;20477;-43
2021/12/11 06:56:41;;;;;;;246.52;174.10;;;;;;;24.03;35.41;101646.09;5062660;28;20047;-44
2021/12/11 06:59:10;;;;;;;245.35;171.02;;;;;;;24.02;35.29;101652.19;5064299;28;20436;-43
2021/12/11 07:01:39;;;;;;;231.48;161.48;;;;;;;23.91;35.64;101651.88;5064399;28;20424;-43
2021/12/11 07:04:11;;;;;;;233.65;167.18;;;;;;;23.77;35.11;101628.00;5063775;28;20113;-41
2021/12/11 07:06:44;;;;;;;224.02;158.68;;;;;;;23.95;35.33;101655.50;5064038;28;20115;-44
2021/12/11 07:09:14;;;;;;;217.10;156.90;;;;;;;23.81;35.58;101655.16;5063007;28;20036;-42
2021/12/11 07:11:44;;;;;;;218.63;153.30;;;;;;;23.77;35.78;101663.78;5063924;28;20037;-42
2021/12/11 07:14:16;;;;;;;204.05;148.43;;;;;;;23.87;35.29;101657.94;5064104;28;20478;-42
2021/12/11 07:16:45;;;;;;;204.50;147.70;;;;;;;23.88;35.42;101662.31;5063762;28;20051;-42
2021/12/11 07:19:14;;;;;;;202.38;139.23;;;;;;;23.94;35.30;101664.19;5063936;28;20059;-42
2021/12/11 07:21:43;;;;;;;191.32;134.27;;;;;;;24.04;35.02;101666.22;5062552;28;20036;-43
2021/12/11 07:24:13;;;;;;;198.40;133.55;;;;;;;24.13;34.93;101668.16;5062237;28;20476;-42
2021/12/11 07:26:42;;;;;;;188.25;132.55;;;;;;;24.12;34.71;101682.13;5063382;28;20111;-41
2021/12/11 07:29:15;;;;;;;187.00;127.82;;;;;;;24.03;34.80;101671.44;5063379;28;20089;-44
2021/12/11 07:31:44;;;;;;;179.68;126.45;;;;;;;23.99;34.89;101673.09;5063852;28;20028;-42
2021/12/11 07:34:15;;;;;;;178.13;121.55;;;;;;;23.93;35.04;101675.53;5063284;28;20039;-42
2021/12/11 07:36:44;;;;;;;176.23;119.57;;;;;;;23.98;34.93;101671.31;5063667;28;20032;-43
2021/12/11 07:39:15;;;;;;;170.77;117.82;;;;;;;24.11;34.48;101675.09;5063403;28;21246;-42
2021/12/11 07:41:43;;;;;;;160.05;114.78;;;;;;;24.13;34.41;101678.66;5063489;28;20032;-42
2021/12/11 07:44:12;;;;;;;164.30;115.15;;;;;;;24.10;34.66;101679.47;5063470;28;20534;-41
2021/12/11 07:46:41;;;;;;;156.73;106.93;;;;;;;24.09;34.75;101680.31;5061939;28;20065;-42
2021/12/11 07:49:14;;;;;;;160.05;111.68;;;;;;;24.04;34.83;101670.59;5062896;28;20032;-42
2021/12/11 07:51:41;;;;;;;149.60;105.70;;;;;;;24.07;34.55;101679.41;5063198;28;20039;-42
2021/12/11 07:54:11;;;;;;;152.38;103.40;;;;;;;24.05;34.55;101691.56;5063486;28;20426;-42
2021/12/11 07:56:40;;;;;;;150.00;101.70;;;;;;;24.14;34.74;101682.19;5062492;28;20463;-42
2021/12/11 07:59:10;;;;;;;147.82;100.05;;;;;;;24.05;34.47;101688.94;5063294;28;20048;-42
2021/12/11 08:01:41;;;;;;;139.15;98.03;;;;;;;24.12;34.52;101692.59;5063125;28;20541;-42
2021/12/11 08:04:11;;;;;;;149.25;98.78;;;;;;;24.14;34.78;101684.78;5062368;28;20106;-43
2021/12/11 08:06:40;;;;;;;142.18;99.30;;;;;;;24.18;34.61;101692.75;5062811;28;20068;-43
2021/12/11 08:09:12;;;;;;;132.68;92.25;;;;;;;24.14;34.39;101693.53;5062837;28;20032;-42
2021/12/11 08:11:41;;;;;;;137.10;91.35;;;;;;;24.06;34.68;101703.84;5062643;28;20290;-45
2021/12/11 08:14:10;;;;;;;134.43;91.85;;;;;;;24.14;34.87;101705.78;5063023;28;20024;-42
2021/12/11 08:16:46;;;;;;;136.57;93.72;;;;;;;24.21;34.68;101705.03;5062823;28;20303;-42
2021/12/11 08:19:18;;;;;;;133.27;95.00;;;;;;;24.25;34.17;101705.16;5063197;28;20462;-42
2021/12/11 08:21:47;;;;;;;129.70;89.90;;;;;;;24.13;34.36;101704.88;5061716;28;20032;-43
2021/12/11 08:24:16;;;;;;;135.07;89.80;;;;;;;24.15;34.31;101707.53;5063131;28;20496;-42
2021/12/11 08:26:44;;;;;;;132.75;94.03;;;;;;;24.19;34.29;101709.38;5063171;28;20071;-43
2021/12/11 08:29:15;;;;;;;123.97;89.90;;;;;;;24.01;34.94;101709.81;5062934;28;20033;-42
2021/12/11 08:31:45;;;;;;;122.30;86.55;;;;;;;24.01;34.57;101710.69;5062837;28;20087;-45
2021/12/11 08:34:12;;;;;;;127.45;89.40;;;;;;;24.06;34.74;101721.31;5063492;28;20071;-42
2021/12/11 08:36:40;;;;;;;120.20;86.53;;;;;;;24.08;34.53;101724.81;5062526;28;20043;-42
2021/12/11 08:39:11;;;;;;;126.60;85.72;;;;;;;24.05;34.40;101733.50;5060888;28;20124;-42
2021/12/11 08:41:40;;;;;;;121.57;85.05;;;;;;;23.86;35.02;101726.00;5062810;28;20024;-42
2021/12/11 08:44:12;;;;;;;122.18;85.60;;;;;;;23.88;35.09;101727.84;5062776;28;20044;-42
2021/12/11 08:46:45;;;;;;;118.43;81.30;;;;;;;24.03;34.40;101729.97;5062790;28;20021;-42
2021/12/11 08:49:19;;;;;;;118.47;83.47;;;;;;;23.98;34.84;101731.59;5061459;28;20119;-42
2021/12/11 08:51:54;;;;;;;113.22;83.93;;;;;;;23.83;34.78;101732.94;5062257;28;20119;-42
2021/12/11 08:54:23;;;;;;;116.22;78.43;;;;;;;23.92;34.67;101734.03;5062753;28;20043;-42
2021/12/11 08:56:53;;;;;;;116.18;79.22;;;;;;;24.12;34.31;101739.78;5061988;28;20044;-42
2021/12/11 08:59:24;;;;;;;114.07;79.07;;;;;;;24.12;34.16;101738.06;5063131;28;20210;-42
2021/12/11 09:01:58;;;;;;;118.32;81.60;;;;;;;24.09;34.43;101739.72;5062838;28;20394;-42
2021/12/11 09:04:32;;;;;;;113.95;78.28;;;;;;;24.17;34.13;101747.75;5062535;28;20143;-42
2021/12/11 09:07:15;;;;;;;110.47;77.47;;;;;;;24.21;34.05;101745.28;5062084;28;20608;-42
2021/12/11 09:09:58;;;;;;;119.30;81.88;;;;;;;24.23;34.34;101747.91;5062555;28;20041;-42
2021/12/11 09:12:37;;;;;;;117.78;78.78;;;;;;;24.21;33.86;101755.75;5060843;28;20119;-42
2021/12/11 09:15:05;;;;;;;117.47;78.72;;;;;;;24.33;33.66;101757.78;5060592;28;20098;-43
2021/12/11 09:17:47;;;;;;;111.45;80.10;;;;;;;24.23;33.91;101758.41;5065130;28;20033;-44
2021/12/11 09:20:27;;;;;;;118.90;81.03;;;;;;;24.25;34.24;101760.22;5065155;28;20029;-42
2021/12/11 09:23:12;;;;;;;118.15;79.18;;;;;;;24.28;34.09;101765.53;5066037;28;20036;-42
2021/12/11 09:26:12;;;;;;;113.05;80.00;;;;;;;24.25;34.09;101764.59;5065960;28;20119;-42
2021/12/11 09:28:52;;;;;;;115.25;78.53;;;;;;;24.28;34.20;101767.28;5062094;28;20032;-42
2021/12/11 09:31:42;;;;;;;119.85;78.47;;;;;;;24.35;33.71;101768.31;5065915;28;20032;-42
2021/12/11 09:34:17;;;;;;;107.97;75.85;;;;;;;24.32;33.88;101776.09;5065292;28;20409;-42
2021/12/11 09:36:49;;;;;;;109.40;76.57;;;;;;;24.30;33.75;101776.06;5066106;28;20170;-42
2021/12/11 09:39:27;;;;;;;111.38;77.95;;;;;;;24.28;34.29;101776.03;5065644;28;20036;-41
2021/12/11 09:41:55;;;;;;;111.90;77.35;;;;;;;24.24;33.89;101776.78;5064653;28;20033;-41
2021/12/11 09:44:29;;;;;;;112.55;77.18;;;;;;;24.27;34.06;101778.63;5065672;28;20120;-42
2021/12/11 09:47:05;;;;;;;112.45;77.05;;;;;;;24.28;33.84;101783.88;5065936;28;20147;-42
2021/12/11 09:49:37;;;;;;;105.38;77.07;;;;;;;24.33;33.70;101776.13;5064509;28;20612;-42
2021/12/11 09:52:18;;;;;;;112.53;76.07;;;;;;;24.25;34.11;101785.56;5064813;28;20147;-43
2021/12/11 09:54:59;;;;;;;108.78;77.95;;;;;;;24.26;33.87;101788.19;5065580;28;20494;-42
2021/12/11 09:57:33;;;;;;;111.43;77.68;;;;;;;24.24;34.27;101784.66;5065480;28;20386;-43
2021/12/11 10:00:07;;;;;;;117.30;79.73;;;;;;;24.26;33.92;101790.81;5065778;28;20032;-43
2021/12/11 10:02:35;;;;;;;114.43;79.45;;;;;;;24.32;33.96;101790.13;5065182;28;20384;-42
2021/12/11 10:05:38;;;;;;;114.50;77.95;;;;;;;24.27;34.01;101782.13;5065606;28;20124;-42
2021/12/11 10:08:38;;;;;;;106.68;74.95;;;;;;;24.31;33.88;101787.44;5064956;28;20503;-42
2021/12/11 10:11:19;;;;;;;113.38;76.82;;;;;;;24.34;33.85;101791.00;5065275;28;20434;-43
2021/12/11 10:13:50;;;;;;;114.32;76.75;;;;;;;24.30;34.05;101791.81;5065984;28;20020;-42
2021/12/11 10:16:21;;;;;;;108.40;74.88;;;;;;;24.28;33.97;101788.25;5063737;28;20028;-41
2021/12/11 10:18:50;;;;;;;103.55;73.00;;;;;;;24.24;34.29;101791.66;5065398;28;20024;-41
2021/12/11 10:21:24;;;;;;;114.43;74.35;;;;;;;24.26;34.17;101792.56;5063556;28;20033;-41
2021/12/11 10:23:56;;;;;;;110.10;76.45;;;;;;;24.24;34.23;101789.91;5064893;28;20043;-42
2021/12/11 10:26:26;;;;;;;110.63;76.47;;;;;;;24.31;34.42;101797.94;5065216;28;20046;-41
2021/12/11 10:28:58;;;;;;;114.18;76.63;;;;;;;24.24;34.50;101794.28;5062717;28;20470;-41
2021/12/11 10:31:30;;;;;;;105.60;74.32;;;;;;;24.17;34.49;101794.94;5065156;28;20031;-42
2021/12/11 10:34:02;;;;;;;105.95;75.13;;;;;;;24.19;34.69;101796.78;5064587;28;20032;-42
2021/12/11 10:36:34;;;;;;;103.82;73.57;;;;;;;24.26;34.11;101803.94;5063763;28;20024;-41
2021/12/11 10:39:06;;;;;;;102.40;70.65;;;;;;;24.23;34.22;101805.59;5065285;28;21059;-42
2021/12/11 10:41:35;;;;;;;109.00;74.38;;;;;;;24.23;34.20;101816.09;5065337;28;20028;-42
2021/12/11 10:44:14;;;;;;;105.28;72.85;;;;;;;24.16;34.29;101809.81;5064529;28;20040;-43
2021/12/11 10:46:46;;;;;;;110.95;74.07;;;;;;;24.15;34.60;101804.53;5064579;28;20032;-42
2021/12/11 10:49:18;;;;;;;104.70;72.20;;;;;;;24.28;34.30;101810.09;5065158;28;20036;-42
2021/12/11 10:51:55;;;;;;;110.45;77.30;;;;;;;24.18;34.35;101805.50;5064659;28;20029;-41
2021/12/11 10:54:24;;;;;;;110.82;74.03;;;;;;;24.21;34.53;101804.69;5064596;28;20039;-41
2021/12/11 10:56:51;;;;;;;112.10;71.97;;;;;;;24.21;34.28;101802.06;5064372;28;20111;-42
2021/12/11 10:59:25;;;;;;;113.47;75.78;;;;;;;24.16;34.49;101801.94;5064495;28;20024;-42
2021/12/11 11:01:57;;;;;;;108.03;72.93;;;;;;;24.12;34.89;101795.75;5064751;28;20390;-42
2021/12/11 11:04:34;;;;;;;114.72;77.18;;;;;;;24.13;34.92;101794.00;5064571;28;20041;-42
2021/12/11 11:07:04;;;;;;;110.45;75.53;;;;;;;24.16;34.52;101788.84;5064491;28;20041;-44
2021/12/11 11:09:32;;;;;;;111.97;77.32;;;;;;;24.19;34.38;101788.00;5064130;28;20032;-42
2021/12/11 11:12:05;;;;;;;111.63;75.18;;;;;;;24.19;34.38;101785.38;5063732;28;20063;-43
2021/12/11 11:14:34;;;;;;;116.40;77.85;;;;;;;24.22;34.82;101780.22;5064321;28;20036;-42
2021/12/11 11:17:08;;;;;;;111.03;75.40;;;;;;;24.25;34.64;101781.19;5063869;28;20064;-42
2021/12/11 11:19:38;;;;;;;111.18;77.35;;;;;;;24.13;35.00;101783.50;5064441;28;20477;-42
2021/12/11 11:22:11;;;;;;;111.82;75.60;;;;;;;24.05;34.97;101788.56;5064138;28;20428;-42
2021/12/11 11:24:44;;;;;;;107.35;74.63;;;;;;;24.10;34.53;101786.94;5064167;28;20115;-42
2021/12/11 11:27:12;;;;;;;109.47;74.43;;;;;;;24.10;34.91;101788.66;5063961;28;20033;-42
2021/12/11 11:29:42;;;;;;;111.35;76.50;;;;;;;24.18;34.74;101779.28;5064031;28;20028;-42
2021/12/11 11:32:13;;;;;;;112.47;76.03;;;;;;;24.11;34.68;101775.63;5063399;28;20089;-42
2021/12/11 11:34:42;;;;;;;111.95;75.68;;;;;;;24.15;34.62;101771.34;5064181;28;20028;-42
2021/12/11 11:37:15;;;;;;;113.53;80.93;;;;;;;24.17;34.66;101781.84;5062505;28;20024;-41
2021/12/11 11:39:44;;;;;;;121.65;79.70;;;;;;;24.16;34.82;101780.09;5063020;28;20032;-41